createdAt,value
2018-03-29T00:00:08.195Z,88.36
2018-03-29T00:02:36.544Z,88.25
2018-03-29T00:05:04.880Z,88.15
2018-03-29T00:07:33.973Z,88.09
2018-03-29T00:10:02.307Z,88.23
2018-03-29T00:12:30.795Z,88.39
2018-03-29T00:14:59.163Z,88.22
2018-03-29T00:17:28.283Z,87.99
2018-03-29T00:19:56.595Z,88.15
2018-03-29T00:22:24.925Z,88.15
2018-03-29T00:24:54.035Z,88.14
2018-03-29T00:27:22.373Z,88.16
2018-03-29T00:29:51.507Z,88.15
2018-03-29T00:32:20.638Z,88.15
2018-03-29T00:34:49.009Z,88.20
2018-03-29T00:37:17.373Z,88.24
2018-03-29T00:39:46.470Z,88.34
2018-03-29T00:42:15.597Z,88.32
2018-03-29T00:44:43.930Z,88.33
2018-03-29T00:47:12.273Z,88.12
2018-03-29T00:49:40.615Z,87.97
2018-03-29T00:52:08.963Z,88.22
2018-03-29T00:54:37.287Z,88.07
2018-03-29T00:57:05.644Z,88.03
2018-03-29T00:59:34.733Z,88.25
2018-03-29T01:02:03.116Z,88.24
2018-03-29T01:04:32.367Z,88.14
2018-03-29T01:07:00.711Z,88.07
2018-03-29T01:09:29.841Z,87.98
2018-03-29T01:11:58.287Z,87.97
2018-03-29T01:14:27.427Z,87.97
2018-03-29T01:16:55.766Z,88.05
2018-03-29T01:19:24.089Z,88.08
2018-03-29T01:21:52.433Z,88.24
2018-03-29T01:24:20.845Z,88.23
2018-03-29T01:26:49.279Z,88.34
2018-03-29T01:29:17.667Z,88.09
2018-03-29T01:31:46.840Z,87.86
2018-03-29T01:34:15.185Z,87.98
2018-03-29T01:36:43.531Z,87.89
2018-03-29T01:39:11.895Z,87.97
2018-03-29T01:41:40.271Z,87.97
2018-03-29T01:44:08.649Z,88.01
2018-03-29T01:46:37.743Z,87.97
2018-03-29T01:49:06.122Z,87.68
2018-03-29T01:51:34.505Z,87.54
2018-03-29T01:54:02.949Z,87.71
2018-03-29T01:56:32.055Z,87.54
2018-03-29T01:59:01.205Z,87.66
2018-03-29T02:01:29.541Z,87.67
2018-03-29T02:03:57.864Z,87.78
2018-03-29T02:06:27.042Z,87.71
2018-03-29T02:08:55.443Z,87.92
2018-03-29T02:11:23.809Z,87.76
2018-03-29T02:13:52.265Z,87.69
2018-03-29T02:16:20.718Z,87.89
2018-03-29T02:18:49.068Z,88.26
2018-03-29T02:21:17.424Z,88.49
2018-03-29T02:23:45.776Z,88.43
2018-03-29T02:26:14.874Z,88.45
2018-03-29T02:28:43.229Z,88.23
2018-03-29T02:31:11.542Z,88.03
2018-03-29T02:33:40.679Z,87.96
2018-03-29T02:36:09.202Z,87.83
2018-03-29T02:38:37.560Z,87.94
2018-03-29T02:41:05.909Z,88.10
2018-03-29T02:43:34.253Z,88.27
2018-03-29T02:46:02.615Z,88.13
2018-03-29T02:48:30.954Z,87.85
2018-03-29T02:51:00.099Z,87.56
2018-03-29T02:53:28.459Z,87.60
2018-03-29T02:55:56.782Z,87.53
2018-03-29T02:58:25.130Z,87.51
2018-03-29T03:00:53.492Z,87.60
2018-03-29T03:03:22.603Z,87.46
2018-03-29T03:05:50.969Z,87.54
2018-03-29T03:08:19.314Z,87.78
2018-03-29T03:10:48.438Z,87.76
2018-03-29T03:13:16.765Z,87.68
2018-03-29T03:15:45.887Z,87.61
2018-03-29T03:18:14.214Z,87.47
2018-03-29T03:20:42.655Z,87.59
2018-03-29T03:23:11.061Z,87.66
2018-03-29T03:25:39.396Z,87.66
2018-03-29T03:28:07.776Z,87.48
2018-03-29T03:30:36.184Z,87.21
2018-03-29T03:33:05.281Z,87.05
2018-03-29T03:35:34.364Z,86.94
2018-03-29T03:38:02.723Z,86.79
2018-03-29T03:40:31.085Z,86.34
2018-03-29T03:42:59.501Z,86.09
2018-03-29T03:45:27.845Z,85.94
2018-03-29T03:47:57.071Z,86.12
2018-03-29T03:50:25.434Z,86.31
2018-03-29T03:52:53.757Z,86.20
2018-03-29T03:55:22.088Z,86.41
2018-03-29T03:57:50.671Z,86.43
2018-03-29T04:00:19.001Z,86.49
2018-03-29T04:02:47.391Z,86.83
2018-03-29T04:05:15.723Z,87.33
2018-03-29T04:07:44.876Z,87.43
2018-03-29T04:10:13.210Z,87.25
2018-03-29T04:12:41.598Z,87.22
2018-03-29T04:15:10.000Z,87.08
2018-03-29T04:17:38.504Z,87.27
2018-03-29T04:20:08.486Z,87.66
2018-03-29T04:22:36.851Z,87.81
2018-03-29T04:25:05.173Z,88.18
2018-03-29T04:27:33.645Z,88.57
2018-03-29T04:30:02.024Z,88.64
2018-03-29T04:32:30.395Z,88.65
2018-03-29T04:34:58.805Z,88.42
2018-03-29T04:37:27.177Z,87.84
2018-03-29T04:39:55.530Z,87.97
2018-03-29T04:42:23.944Z,88.22
2018-03-29T04:44:52.289Z,88.15
2018-03-29T04:47:21.476Z,87.93
2018-03-29T04:49:50.625Z,87.50
2018-03-29T04:52:19.091Z,87.09
2018-03-29T04:54:47.450Z,86.79
2018-03-29T04:57:15.876Z,86.69
2018-03-29T04:59:44.213Z,86.60
2018-03-29T05:02:13.422Z,86.54
2018-03-29T05:04:41.764Z,86.47
2018-03-29T05:07:10.233Z,86.39
2018-03-29T05:09:38.651Z,86.55
2018-03-29T05:12:07.487Z,86.70
2018-03-29T05:14:35.860Z,86.70
2018-03-29T05:17:04.185Z,86.48
2018-03-29T05:19:32.520Z,86.57
2018-03-29T05:22:00.854Z,87.00
2018-03-29T05:24:30.063Z,87.67
2018-03-29T05:26:59.130Z,88.13
2018-03-29T05:29:27.517Z,88.49
2018-03-29T05:31:55.864Z,88.71
2018-03-29T05:34:24.304Z,88.82
2018-03-29T05:36:52.944Z,88.85
2018-03-29T05:39:21.825Z,88.83
2018-03-29T05:41:50.214Z,88.59
2018-03-29T05:44:18.552Z,88.13
2018-03-29T05:46:47.027Z,87.55
2018-03-29T05:49:15.449Z,87.40
2018-03-29T05:51:43.840Z,87.27
2018-03-29T05:54:12.188Z,87.09
2018-03-29T05:56:40.541Z,87.16
2018-03-29T05:59:08.897Z,87.23
2018-03-29T06:01:37.244Z,87.29
2018-03-29T06:04:06.386Z,87.28
2018-03-29T06:06:34.772Z,87.17
2018-03-29T06:09:03.220Z,87.04
2018-03-29T06:11:31.608Z,86.88
2018-03-29T06:14:05.603Z,86.82
2018-03-29T06:16:39.537Z,86.55
2018-03-29T06:19:09.700Z,86.15
2018-03-29T06:21:38.126Z,85.84
2018-03-29T06:24:06.512Z,85.64
2018-03-29T06:26:34.860Z,85.18
2018-03-29T06:29:04.007Z,85.02
2018-03-29T06:31:32.331Z,84.82
2018-03-29T06:34:00.700Z,84.92
2018-03-29T06:36:29.044Z,84.89
2018-03-29T06:38:57.397Z,84.84
2018-03-29T06:41:26.483Z,84.24
2018-03-29T06:43:54.861Z,83.83
2018-03-29T06:46:23.290Z,83.37
2018-03-29T06:48:52.381Z,82.87
2018-03-29T06:51:20.731Z,82.69
2018-03-29T06:53:49.108Z,82.38
2018-03-29T06:56:18.266Z,82.33
2018-03-29T06:58:46.578Z,82.10
2018-03-29T07:01:14.895Z,82.12
2018-03-29T07:03:43.264Z,82.11
2018-03-29T07:06:12.403Z,81.94
2018-03-29T07:08:40.724Z,81.93
2018-03-29T07:11:09.025Z,82.03
2018-03-29T07:13:37.524Z,81.81
2018-03-29T07:16:06.621Z,81.62
2018-03-29T07:18:35.731Z,81.56
2018-03-29T07:21:04.108Z,81.50
2018-03-29T07:23:32.450Z,81.40
2018-03-29T07:26:00.762Z,81.13
2018-03-29T07:28:30.173Z,80.81
2018-03-29T07:30:58.613Z,80.77
2018-03-29T07:33:26.952Z,81.06
2018-03-29T07:35:55.328Z,81.14
2018-03-29T07:38:23.644Z,80.96
2018-03-29T07:40:51.974Z,80.96
2018-03-29T07:43:21.076Z,80.83
2018-03-29T07:45:50.152Z,80.65
2018-03-29T07:48:18.500Z,80.28
2018-03-29T07:50:46.814Z,79.92
2018-03-29T07:53:15.164Z,79.60
2018-03-29T07:55:43.503Z,79.07
2018-03-29T07:58:12.638Z,78.26
2018-03-29T08:00:40.952Z,77.81
2018-03-29T08:03:10.047Z,77.37
2018-03-29T08:05:38.379Z,76.97
2018-03-29T08:08:07.311Z,76.71
2018-03-29T08:10:35.644Z,75.29
2018-03-29T08:13:03.991Z,74.26
2018-03-29T08:15:32.302Z,73.13
2018-03-29T08:18:01.398Z,72.62
2018-03-29T08:20:30.504Z,72.12
